sensor_id;sensor_type;location;lat;lon;timestamp;pressure;altitude;pressure_sealevel;temperature;humidity
45071;BME280;30836;48.906;9.140;2023-03-19T00:00:54;983.14;;;20.28;34.37
45071;BME280;30836;48.906;9.140;2023-03-19T00:01:55;983.14;;;20.29;34.32
45071;BME280;30836;48.906;9.140;2023-03-19T00:02:55;983.14;;;20.28;34.31
45071;BME280;30836;48.906;9.140;2023-03-19T00:03:55;983.18;;;20.26;34.40
45071;BME280;30836;48.906;9.140;2023-03-19T00:04:56;983.20;;;20.23;34.34
45071;BME280;30836;48.906;9.140;2023-03-19T00:05:56;983.20;;;20.19;34.31
45071;BME280;30836;48.906;9.140;2023-03-19T00:06:57;983.22;;;20.18;34.35
45071;BME280;30836;48.906;9.140;2023-03-19T00:07:57;983.20;;;20.17;34.36
45071;BME280;30836;48.906;9.140;2023-03-19T00:08:58;983.20;;;20.15;34.49
45071;BME280;30836;48.906;9.140;2023-03-19T00:09:58;983.24;;;20.14;34.46
45071;BME280;30836;48.906;9.140;2023-03-19T00:11:04;983.26;;;20.14;34.46
45071;BME280;30836;48.906;9.140;2023-03-19T00:12:05;983.26;;;20.15;34.43
45071;BME280;30836;48.906;9.140;2023-03-19T00:13:06;983.30;;;20.17;34.40
45071;BME280;30836;48.906;9.140;2023-03-19T00:14:07;983.30;;;20.19;34.44
45071;BME280;30836;48.906;9.140;2023-03-19T00:15:07;983.32;;;20.21;34.45
45071;BME280;30836;48.906;9.140;2023-03-19T00:16:08;983.32;;;20.22;34.45
45071;BME280;30836;48.906;9.140;2023-03-19T00:17:09;983.32;;;20.23;34.46
45071;BME280;30836;48.906;9.140;2023-03-19T00:18:09;983.32;;;20.25;34.41
45071;BME280;30836;48.906;9.140;2023-03-19T00:19:10;983.28;;;20.27;34.37
45071;BME280;30836;48.906;9.140;2023-03-19T00:20:11;983.28;;;20.30;34.31
45071;BME280;30836;48.906;9.140;2023-03-19T00:21:12;983.30;;;20.32;34.31
45071;BME280;30836;48.906;9.140;2023-03-19T00:22:13;983.28;;;20.35;34.25
45071;BME280;30836;48.906;9.140;2023-03-19T00:23:13;983.24;;;20.37;34.28
45071;BME280;30836;48.906;9.140;2023-03-19T00:24:14;983.24;;;20.39;34.30
45071;BME280;30836;48.906;9.140;2023-03-19T00:25:14;983.22;;;20.41;34.20
45071;BME280;30836;48.906;9.140;2023-03-19T00:26:14;983.22;;;20.42;34.18
45071;BME280;30836;48.906;9.140;2023-03-19T00:27:15;983.22;;;20.42;34.36
45071;BME280;30836;48.906;9.140;2023-03-19T00:28:15;983.22;;;20.43;34.50
45071;BME280;30836;48.906;9.140;2023-03-19T00:29:16;983.22;;;20.42;34.63
45071;BME280;30836;48.906;9.140;2023-03-19T00:30:16;983.24;;;20.42;34.65
45071;BME280;30836;48.906;9.140;2023-03-19T00:31:17;983.22;;;20.41;34.67
45071;BME280;30836;48.906;9.140;2023-03-19T00:32:17;983.24;;;20.41;34.71
45071;BME280;30836;48.906;9.140;2023-03-19T00:33:18;983.24;;;20.39;34.78
45071;BME280;30836;48.906;9.140;2023-03-19T00:34:18;983.24;;;20.38;34.81
45071;BME280;30836;48.906;9.140;2023-03-19T00:35:19;983.26;;;20.36;34.88
45071;BME280;30836;48.906;9.140;2023-03-19T00:36:19;983.24;;;20.35;34.87
45071;BME280;30836;48.906;9.140;2023-03-19T00:37:19;983.24;;;20.34;34.89
45071;BME280;30836;48.906;9.140;2023-03-19T00:38:20;983.28;;;20.33;34.94
45071;BME280;30836;48.906;9.140;2023-03-19T00:39:20;983.24;;;20.31;34.97
45071;BME280;30836;48.906;9.140;2023-03-19T00:40:21;983.24;;;20.29;35.03
45071;BME280;30836;48.906;9.140;2023-03-19T00:41:21;983.24;;;20.26;35.03
45071;BME280;30836;48.906;9.140;2023-03-19T00:42:22;983.24;;;20.23;35.09
45071;BME280;30836;48.906;9.140;2023-03-19T00:43:23;983.24;;;20.22;35.08
45071;BME280;30836;48.906;9.140;2023-03-19T00:44:24;983.22;;;20.20;35.10
45071;BME280;30836;48.906;9.140;2023-03-19T00:45:24;983.22;;;20.19;35.07
45071;BME280;30836;48.906;9.140;2023-03-19T00:46:25;983.24;;;20.18;35.18
45071;BME280;30836;48.906;9.140;2023-03-19T00:47:25;983.20;;;20.17;35.21
45071;BME280;30836;48.906;9.140;2023-03-19T00:48:26;983.20;;;20.17;35.25
45071;BME280;30836;48.906;9.140;2023-03-19T00:49:26;983.20;;;20.16;35.32
45071;BME280;30836;48.906;9.140;2023-03-19T00:50:26;983.24;;;20.15;35.31
45071;BME280;30836;48.906;9.140;2023-03-19T00:51:27;983.24;;;20.15;35.33
45071;BME280;30836;48.906;9.140;2023-03-19T00:52:27;983.24;;;20.15;35.31
45071;BME280;30836;48.906;9.140;2023-03-19T00:53:28;983.24;;;20.15;35.37
45071;BME280;30836;48.906;9.140;2023-03-19T00:54:28;983.22;;;20.15;35.35
45071;BME280;30836;48.906;9.140;2023-03-19T00:55:29;983.22;;;20.15;35.26
45071;BME280;30836;48.906;9.140;2023-03-19T00:56:29;983.22;;;20.15;35.24
45071;BME280;30836;48.906;9.140;2023-03-19T00:57:29;983.24;;;20.15;35.24
45071;BME280;30836;48.906;9.140;2023-03-19T00:58:30;983.24;;;20.15;35.26
45071;BME280;30836;48.906;9.140;2023-03-19T00:59:30;983.24;;;20.15;35.35
45071;BME280;30836;48.906;9.140;2023-03-19T01:00:31;983.26;;;20.16;35.33
45071;BME280;30836;48.906;9.140;2023-03-19T01:01:32;983.28;;;20.17;35.35
45071;BME280;30836;48.906;9.140;2023-03-19T01:02:33;983.32;;;20.17;35.41
45071;BME280;30836;48.906;9.140;2023-03-19T01:03:33;983.30;;;20.18;35.40
45071;BME280;30836;48.906;9.140;2023-03-19T01:04:34;983.30;;;20.19;35.38
45071;BME280;30836;48.906;9.140;2023-03-19T01:05:34;983.32;;;20.20;35.45
45071;BME280;30836;48.906;9.140;2023-03-19T01:06:35;983.30;;;20.19;35.50
45071;BME280;30836;48.906;9.140;2023-03-19T01:07:35;983.32;;;20.19;35.51
45071;BME280;30836;48.906;9.140;2023-03-19T01:08:36;983.34;;;20.19;35.49
45071;BME280;30836;48.906;9.140;2023-03-19T01:09:36;983.38;;;20.18;35.47
45071;BME280;30836;48.906;9.140;2023-03-19T01:10:37;983.36;;;20.17;35.46
45071;BME280;30836;48.906;9.140;2023-03-19T01:11:37;983.38;;;20.17;35.37
45071;BME280;30836;48.906;9.140;2023-03-19T01:12:38;983.40;;;20.16;35.21
45071;BME280;30836;48.906;9.140;2023-03-19T01:12:48;983.42;;;20.10;35.20
45071;BME280;30836;48.906;9.140;2023-03-19T01:13:48;983.44;;;20.09;35.24
45071;BME280;30836;48.906;9.140;2023-03-19T01:14:49;983.40;;;20.00;35.39
45071;BME280;30836;48.906;9.140;2023-03-19T01:15:50;983.32;;;19.84;35.91
45071;BME280;30836;48.906;9.140;2023-03-19T01:16:51;983.32;;;19.67;36.42
45071;BME280;30836;48.906;9.140;2023-03-19T01:17:52;983.32;;;19.52;36.72
45071;BME280;30836;48.906;9.140;2023-03-19T01:18:52;983.34;;;19.40;36.86
45071;BME280;30836;48.906;9.140;2023-03-19T01:19:53;983.36;;;19.30;36.97
45071;BME280;30836;48.906;9.140;2023-03-19T01:20:53;983.34;;;19.20;37.05
45071;BME280;30836;48.906;9.140;2023-03-19T01:21:54;983.34;;;19.13;37.00
45071;BME280;30836;48.906;9.140;2023-03-19T01:22:54;983.36;;;19.07;37.22
45071;BME280;30836;48.906;9.140;2023-03-19T01:23:55;983.34;;;19.03;37.37
45071;BME280;30836;48.906;9.140;2023-03-19T01:24:56;983.38;;;18.99;37.30
45071;BME280;30836;48.906;9.140;2023-03-19T01:25:57;983.34;;;18.95;37.26
45071;BME280;30836;48.906;9.140;2023-03-19T01:26:57;983.38;;;18.93;37.17
45071;BME280;30836;48.906;9.140;2023-03-19T01:27:58;983.40;;;18.90;36.81
45071;BME280;30836;48.906;9.140;2023-03-19T01:28:58;983.40;;;18.86;37.23
45071;BME280;30836;48.906;9.140;2023-03-19T01:29:58;983.42;;;18.84;37.31
45071;BME280;30836;48.906;9.140;2023-03-19T01:30:59;983.44;;;18.81;37.10
45071;BME280;30836;48.906;9.140;2023-03-19T01:32:01;983.46;;;18.79;37.22
45071;BME280;30836;48.906;9.140;2023-03-19T01:33:01;983.48;;;18.77;37.10
45071;BME280;30836;48.906;9.140;2023-03-19T01:34:02;983.50;;;18.74;37.31
45071;BME280;30836;48.906;9.140;2023-03-19T01:35:03;983.54;;;18.73;37.35
45071;BME280;30836;48.906;9.140;2023-03-19T01:36:04;983.59;;;18.72;37.66
45071;BME280;30836;48.906;9.140;2023-03-19T01:37:05;983.63;;;18.70;37.91
45071;BME280;30836;48.906;9.140;2023-03-19T01:38:05;983.65;;;18.69;37.96
45071;BME280;30836;48.906;9.140;2023-03-19T01:39:05;983.61;;;18.68;38.21
45071;BME280;30836;48.906;9.140;2023-03-19T01:40:07;983.59;;;18.65;38.96
45071;BME280;30836;48.906;9.140;2023-03-19T01:41:12;983.57;;;18.64;39.19
45071;BME280;30836;48.906;9.140;2023-03-19T01:42:13;983.69;;;18.65;39.37
45071;BME280;30836;48.906;9.140;2023-03-19T01:43:18;983.67;;;18.62;39.76
45071;BME280;30836;48.906;9.140;2023-03-19T01:44:26;983.67;;;18.57;39.83
45071;BME280;30836;48.906;9.140;2023-03-19T01:45:29;983.63;;;18.53;40.09
45071;BME280;30836;48.906;9.140;2023-03-19T01:46:32;983.65;;;18.53;39.89
45071;BME280;30836;48.906;9.140;2023-03-19T01:47:36;983.69;;;18.54;40.10
45071;BME280;30836;48.906;9.140;2023-03-19T01:49:54;983.67;;;18.41;40.44
45071;BME280;30836;48.906;9.140;2023-03-19T01:50:56;983.69;;;18.34;40.59
45071;BME280;30836;48.906;9.140;2023-03-19T01:51:57;983.71;;;18.30;40.85
45071;BME280;30836;48.906;9.140;2023-03-19T01:53:01;983.79;;;18.27;41.20
45071;BME280;30836;48.906;9.140;2023-03-19T01:54:03;983.85;;;18.19;41.27
45071;BME280;30836;48.906;9.140;2023-03-19T01:55:06;983.91;;;18.08;41.39
45071;BME280;30836;48.906;9.140;2023-03-19T01:55:18;983.97;;;17.94;41.40
45071;BME280;30836;48.906;9.140;2023-03-19T01:56:22;983.97;;;17.92;41.51
45071;BME280;30836;48.906;9.140;2023-03-19T01:57:28;983.97;;;17.89;41.58
45071;BME280;30836;48.906;9.140;2023-03-19T01:57:40;983.93;;;17.85;41.58
45071;BME280;30836;48.906;9.140;2023-03-19T01:58:42;983.97;;;17.87;41.80
45071;BME280;30836;48.906;9.140;2023-03-19T01:59:49;983.95;;;17.87;41.92
45071;BME280;30836;48.906;9.140;2023-03-19T02:00:53;983.97;;;17.80;41.98
45071;BME280;30836;48.906;9.140;2023-03-19T02:02:02;984.01;;;17.74;41.81
45071;BME280;30836;48.906;9.140;2023-03-19T02:03:10;984.01;;;17.74;41.40
45071;BME280;30836;48.906;9.140;2023-03-19T02:04:12;984.05;;;17.75;41.51
45071;BME280;30836;48.906;9.140;2023-03-19T02:05:14;984.03;;;17.72;41.90
45071;BME280;30836;48.906;9.140;2023-03-19T02:06:15;984.03;;;17.67;41.96
45071;BME280;30836;48.906;9.140;2023-03-19T02:07:19;984.05;;;17.63;41.77
45071;BME280;30836;48.906;9.140;2023-03-19T02:08:20;984.03;;;17.59;42.02
45071;BME280;30836;48.906;9.140;2023-03-19T02:09:23;984.08;;;17.52;42.19
45071;BME280;30836;48.906;9.140;2023-03-19T02:10:25;984.07;;;17.45;42.44
45071;BME280;30836;48.906;9.140;2023-03-19T02:11:26;984.07;;;17.35;42.56
45071;BME280;30836;48.906;9.140;2023-03-19T02:12:26;984.08;;;17.28;42.40
45071;BME280;30836;48.906;9.140;2023-03-19T02:13:27;984.07;;;17.20;42.81
45071;BME280;30836;48.906;9.140;2023-03-19T02:14:27;984.10;;;17.10;42.86
45071;BME280;30836;48.906;9.140;2023-03-19T02:15:28;984.08;;;17.01;43.24
45071;BME280;30836;48.906;9.140;2023-03-19T02:16:28;984.10;;;16.94;43.33
45071;BME280;30836;48.906;9.140;2023-03-19T02:17:29;984.12;;;16.89;43.66
45071;BME280;30836;48.906;9.140;2023-03-19T02:18:29;984.12;;;16.83;43.76
45071;BME280;30836;48.906;9.140;2023-03-19T02:19:34;984.10;;;16.78;44.09
45071;BME280;30836;48.906;9.140;2023-03-19T02:21:50;984.12;;;16.84;44.07
45071;BME280;30836;48.906;9.140;2023-03-19T02:24:05;984.12;;;16.94;44.12
45071;BME280;30836;48.906;9.140;2023-03-19T02:25:13;984.12;;;16.99;44.12
45071;BME280;30836;48.906;9.140;2023-03-19T02:26:21;984.14;;;17.01;44.46
45071;BME280;30836;48.906;9.140;2023-03-19T02:27:23;984.14;;;17.00;44.61
45071;BME280;30836;48.906;9.140;2023-03-19T02:28:23;984.16;;;17.01;44.78
45071;BME280;30836;48.906;9.140;2023-03-19T02:29:24;984.20;;;17.03;44.89
45071;BME280;30836;48.906;9.140;2023-03-19T02:30:28;984.16;;;17.09;45.01
45071;BME280;30836;48.906;9.140;2023-03-19T02:31:31;984.14;;;17.14;45.09
45071;BME280;30836;48.906;9.140;2023-03-19T02:32:31;984.20;;;17.20;45.25
45071;BME280;30836;48.906;9.140;2023-03-19T02:33:32;984.20;;;17.22;45.83
45071;BME280;30836;48.906;9.140;2023-03-19T02:34:37;984.24;;;17.21;46.10
45071;BME280;30836;48.906;9.140;2023-03-19T02:35:39;984.22;;;17.24;46.19
45071;BME280;30836;48.906;9.140;2023-03-19T02:36:42;984.22;;;17.26;46.60
45071;BME280;30836;48.906;9.140;2023-03-19T02:37:47;984.24;;;17.31;46.56
45071;BME280;30836;48.906;9.140;2023-03-19T02:38:48;984.24;;;17.42;46.20
45071;BME280;30836;48.906;9.140;2023-03-19T02:39:55;984.24;;;17.51;46.32
45071;BME280;30836;48.906;9.140;2023-03-19T02:41:01;984.18;;;17.56;46.59
45071;BME280;30836;48.906;9.140;2023-03-19T02:42:04;984.20;;;17.61;46.40
45071;BME280;30836;48.906;9.140;2023-03-19T02:43:05;984.18;;;17.64;46.42
45071;BME280;30836;48.906;9.140;2023-03-19T02:44:05;984.16;;;17.67;46.29
45071;BME280;30836;48.906;9.140;2023-03-19T02:44:17;984.12;;;17.71;46.38
45071;BME280;30836;48.906;9.140;2023-03-19T02:45:17;984.08;;;17.75;46.19
45071;BME280;30836;48.906;9.140;2023-03-19T02:46:18;984.01;;;17.81;46.25
45071;BME280;30836;48.906;9.140;2023-03-19T02:47:19;983.95;;;17.84;47.48
45071;BME280;30836;48.906;9.140;2023-03-19T02:48:19;983.93;;;17.81;47.78
45071;BME280;30836;48.906;9.140;2023-03-19T02:49:19;983.95;;;17.82;47.63
45071;BME280;30836;48.906;9.140;2023-03-19T02:50:20;983.97;;;17.87;47.59
45071;BME280;30836;48.906;9.140;2023-03-19T02:51:20;983.99;;;17.92;47.41
45071;BME280;30836;48.906;9.140;2023-03-19T02:52:21;984.03;;;17.98;47.28
45071;BME280;30836;48.906;9.140;2023-03-19T02:53:21;984.05;;;18.04;47.13
45071;BME280;30836;48.906;9.140;2023-03-19T02:54:22;984.03;;;18.10;46.85
45071;BME280;30836;48.906;9.140;2023-03-19T02:55:23;984.07;;;18.14;46.65
45071;BME280;30836;48.906;9.140;2023-03-19T02:56:23;984.03;;;18.17;46.75
45071;BME280;30836;48.906;9.140;2023-03-19T02:57:24;984.05;;;18.19;47.11
45071;BME280;30836;48.906;9.140;2023-03-19T02:58:24;984.03;;;18.21;47.16
45071;BME280;30836;48.906;9.140;2023-03-19T02:59:25;984.03;;;18.24;47.22
45071;BME280;30836;48.906;9.140;2023-03-19T03:00:25;984.05;;;18.28;47.17
45071;BME280;30836;48.906;9.140;2023-03-19T03:01:26;984.01;;;18.33;47.16
45071;BME280;30836;48.906;9.140;2023-03-19T03:02:26;983.99;;;18.38;47.07
45071;BME280;30836;48.906;9.140;2023-03-19T03:03:27;984.01;;;18.42;47.05
45071;BME280;30836;48.906;9.140;2023-03-19T03:04:28;983.99;;;18.45;47.01
45071;BME280;30836;48.906;9.140;2023-03-19T03:05:28;984.01;;;18.49;46.90
45071;BME280;30836;48.906;9.140;2023-03-19T03:06:28;984.07;;;18.52;46.87
45071;BME280;30836;48.906;9.140;2023-03-19T03:07:29;984.05;;;18.55;46.86
45071;BME280;30836;48.906;9.140;2023-03-19T03:08:29;984.08;;;18.56;46.64
45071;BME280;30836;48.906;9.140;2023-03-19T03:09:30;984.08;;;18.56;46.56
45071;BME280;30836;48.906;9.140;2023-03-19T03:10:31;984.10;;;18.55;46.61
45071;BME280;30836;48.906;9.140;2023-03-19T03:11:32;984.10;;;18.57;46.45
45071;BME280;30836;48.906;9.140;2023-03-19T03:12:32;984.10;;;18.66;46.01
45071;BME280;30836;48.906;9.140;2023-03-19T03:13:33;984.12;;;18.81;45.77
45071;BME280;30836;48.906;9.140;2023-03-19T03:14:33;984.12;;;18.95;45.54
45071;BME280;30836;48.906;9.140;2023-03-19T03:15:34;984.12;;;19.08;45.28
45071;BME280;30836;48.906;9.140;2023-03-19T03:16:35;984.12;;;19.13;45.12
45071;BME280;30836;48.906;9.140;2023-03-19T03:17:36;984.12;;;19.09;44.91
45071;BME280;30836;48.906;9.140;2023-03-19T03:18:38;984.12;;;19.00;44.96
45071;BME280;30836;48.906;9.140;2023-03-19T03:19:38;984.14;;;18.90;45.09
45071;BME280;30836;48.906;9.140;2023-03-19T03:20:39;984.14;;;18.80;45.27
45071;BME280;30836;48.906;9.140;2023-03-19T03:21:39;984.16;;;18.72;45.38
45071;BME280;30836;48.906;9.140;2023-03-19T03:22:40;984.14;;;18.65;45.49
45071;BME280;30836;48.906;9.140;2023-03-19T03:23:41;984.16;;;18.61;45.53
45071;BME280;30836;48.906;9.140;2023-03-19T03:24:41;984.16;;;18.58;45.55
45071;BME280;30836;48.906;9.140;2023-03-19T03:25:42;984.18;;;18.57;45.62
45071;BME280;30836;48.906;9.140;2023-03-19T03:26:42;984.18;;;18.56;45.80
45071;BME280;30836;48.906;9.140;2023-03-19T03:27:43;984.20;;;18.54;45.77
45071;BME280;30836;48.906;9.140;2023-03-19T03:28:43;984.18;;;18.54;45.62
45071;BME280;30836;48.906;9.140;2023-03-19T03:29:44;984.20;;;18.54;45.61
45071;BME280;30836;48.906;9.140;2023-03-19T03:30:44;984.16;;;18.54;45.62
45071;BME280;30836;48.906;9.140;2023-03-19T03:31:45;984.16;;;18.55;45.56
45071;BME280;30836;48.906;9.140;2023-03-19T03:32:46;984.12;;;18.54;45.52
45071;BME280;30836;48.906;9.140;2023-03-19T03:33:46;984.10;;;18.52;45.52
45071;BME280;30836;48.906;9.140;2023-03-19T03:34:47;984.10;;;18.51;45.63
45071;BME280;30836;48.906;9.140;2023-03-19T03:35:47;984.10;;;18.52;45.67
45071;BME280;30836;48.906;9.140;2023-03-19T03:36:48;984.08;;;18.53;45.66
45071;BME280;30836;48.906;9.140;2023-03-19T03:37:49;984.08;;;18.52;45.63
45071;BME280;30836;48.906;9.140;2023-03-19T03:38:50;984.10;;;18.48;45.63
45071;BME280;30836;48.906;9.140;2023-03-19T03:39:50;984.12;;;18.43;45.34
45071;BME280;30836;48.906;9.140;2023-03-19T03:40:51;984.10;;;18.40;45.23
45071;BME280;30836;48.906;9.140;2023-03-19T03:41:52;984.12;;;18.37;45.11
45071;BME280;30836;48.906;9.140;2023-03-19T03:42:52;984.12;;;18.36;45.12
45071;BME280;30836;48.906;9.140;2023-03-19T03:43:53;984.12;;;18.35;45.03
45071;BME280;30836;48.906;9.140;2023-03-19T03:44:53;984.10;;;18.34;44.80
45071;BME280;30836;48.906;9.140;2023-03-19T03:45:54;984.10;;;18.33;44.72
45071;BME280;30836;48.906;9.140;2023-03-19T03:46:54;984.08;;;18.34;44.86
45071;BME280;30836;48.906;9.140;2023-03-19T03:47:55;984.08;;;18.35;45.03
45071;BME280;30836;48.906;9.140;2023-03-19T03:48:55;984.10;;;18.39;45.15
45071;BME280;30836;48.906;9.140;2023-03-19T03:49:55;984.07;;;18.42;45.16
45071;BME280;30836;48.906;9.140;2023-03-19T03:50:56;984.08;;;18.44;45.38
45071;BME280;30836;48.906;9.140;2023-03-19T03:51:56;984.12;;;18.45;45.44
45071;BME280;30836;48.906;9.140;2023-03-19T03:52:57;984.12;;;18.44;45.64
45071;BME280;30836;48.906;9.140;2023-03-19T03:53:57;984.12;;;18.45;45.62
45071;BME280;30836;48.906;9.140;2023-03-19T03:54:58;984.14;;;18.46;45.54
45071;BME280;30836;48.906;9.140;2023-03-19T03:55:58;984.16;;;18.46;45.77
45071;BME280;30836;48.906;9.140;2023-03-19T03:56:59;984.16;;;18.44;46.08
45071;BME280;30836;48.906;9.140;2023-03-19T03:57:59;984.16;;;18.43;46.38
45071;BME280;30836;48.906;9.140;2023-03-19T03:59:00;984.18;;;18.42;46.42
45071;BME280;30836;48.906;9.140;2023-03-19T04:00:00;984.18;;;18.43;46.49
45071;BME280;30836;48.906;9.140;2023-03-19T04:01:01;984.18;;;18.45;46.51
45071;BME280;30836;48.906;9.140;2023-03-19T04:02:01;984.20;;;18.47;46.54
45071;BME280;30836;48.906;9.140;2023-03-19T04:03:01;984.22;;;18.48;46.56
45071;BME280;30836;48.906;9.140;2023-03-19T04:04:02;984.22;;;18.50;46.54
45071;BME280;30836;48.906;9.140;2023-03-19T04:05:03;984.26;;;18.52;46.56
45071;BME280;30836;48.906;9.140;2023-03-19T04:06:04;984.24;;;18.53;46.63
45071;BME280;30836;48.906;9.140;2023-03-19T04:07:04;984.26;;;18.56;46.57
45071;BME280;30836;48.906;9.140;2023-03-19T04:08:05;984.28;;;18.65;46.26
45071;BME280;30836;48.906;9.140;2023-03-19T04:09:06;984.30;;;18.79;46.00
45071;BME280;30836;48.906;9.140;2023-03-19T04:10:07;984.28;;;18.93;45.79
45071;BME280;30836;48.906;9.140;2023-03-19T04:11:08;984.28;;;19.05;45.60
45071;BME280;30836;48.906;9.140;2023-03-19T04:12:09;984.24;;;19.16;45.35
45071;BME280;30836;48.906;9.140;2023-03-19T04:13:11;984.28;;;19.25;45.13
45071;BME280;30836;48.906;9.140;2023-03-19T04:14:12;984.28;;;19.32;45.06
45071;BME280;30836;48.906;9.140;2023-03-19T04:15:12;984.28;;;19.35;45.12
45071;BME280;30836;48.906;9.140;2023-03-19T04:16:13;984.34;;;19.36;45.08
45071;BME280;30836;48.906;9.140;2023-03-19T04:17:13;984.38;;;19.38;44.99
45071;BME280;30836;48.906;9.140;2023-03-19T04:18:13;984.38;;;19.39;44.92
45071;BME280;30836;48.906;9.140;2023-03-19T04:19:14;984.40;;;19.40;44.85
45071;BME280;30836;48.906;9.140;2023-03-19T04:20:14;984.40;;;19.41;44.73
45071;BME280;30836;48.906;9.140;2023-03-19T04:21:15;984.40;;;19.42;44.89
45071;BME280;30836;48.906;9.140;2023-03-19T04:22:15;984.42;;;19.40;44.96
45071;BME280;30836;48.906;9.140;2023-03-19T04:23:16;984.40;;;19.37;45.01
45071;BME280;30836;48.906;9.140;2023-03-19T04:24:16;984.42;;;19.33;44.87
45071;BME280;30836;48.906;9.140;2023-03-19T04:25:17;984.40;;;19.32;44.85
45071;BME280;30836;48.906;9.140;2023-03-19T04:26:17;984.44;;;19.30;44.63
45071;BME280;30836;48.906;9.140;2023-03-19T04:27:18;984.46;;;19.26;44.59
45071;BME280;30836;48.906;9.140;2023-03-19T04:28:18;984.48;;;19.23;44.50
45071;BME280;30836;48.906;9.140;2023-03-19T04:29:19;984.48;;;19.22;44.49
45071;BME280;30836;48.906;9.140;2023-03-19T04:30:19;984.44;;;19.22;44.49
45071;BME280;30836;48.906;9.140;2023-03-19T04:31:19;984.46;;;19.22;44.52
45071;BME280;30836;48.906;9.140;2023-03-19T04:32:20;984.48;;;19.25;44.44
45071;BME280;30836;48.906;9.140;2023-03-19T04:33:20;984.46;;;19.27;44.37
45071;BME280;30836;48.906;9.140;2023-03-19T04:34:21;984.44;;;19.30;44.31
45071;BME280;30836;48.906;9.140;2023-03-19T04:35:21;984.48;;;19.30;44.31
45071;BME280;30836;48.906;9.140;2023-03-19T04:36:22;984.48;;;19.29;44.26
45071;BME280;30836;48.906;9.140;2023-03-19T04:37:22;984.50;;;19.28;44.35
45071;BME280;30836;48.906;9.140;2023-03-19T04:38:23;984.46;;;19.28;44.33
45071;BME280;30836;48.906;9.140;2023-03-19T04:39:24;984.46;;;19.27;44.51
45071;BME280;30836;48.906;9.140;2023-03-19T04:40:25;984.46;;;19.27;44.50
45071;BME280;30836;48.906;9.140;2023-03-19T04:41:25;984.42;;;19.29;44.45
45071;BME280;30836;48.906;9.140;2023-03-19T04:42:26;984.40;;;19.31;44.37
45071;BME280;30836;48.906;9.140;2023-03-19T04:43:26;984.40;;;19.34;44.29
45071;BME280;30836;48.906;9.140;2023-03-19T04:44:26;984.42;;;19.36;44.21
45071;BME280;30836;48.906;9.140;2023-03-19T04:45:27;984.44;;;19.38;44.18
45071;BME280;30836;48.906;9.140;2023-03-19T04:46:27;984.44;;;19.40;44.20
45071;BME280;30836;48.906;9.140;2023-03-19T04:47:28;984.46;;;19.41;44.13
45071;BME280;30836;48.906;9.140;2023-03-19T04:48:28;984.48;;;19.42;44.00
45071;BME280;30836;48.906;9.140;2023-03-19T04:49:29;984.48;;;19.42;44.04
45071;BME280;30836;48.906;9.140;2023-03-19T04:50:29;984.46;;;19.42;44.05
45071;BME280;30836;48.906;9.140;2023-03-19T04:51:29;984.46;;;19.41;44.02
45071;BME280;30836;48.906;9.140;2023-03-19T04:52:30;984.46;;;19.40;44.07
45071;BME280;30836;48.906;9.140;2023-03-19T04:53:30;984.48;;;19.40;44.12
45071;BME280;30836;48.906;9.140;2023-03-19T04:54:31;984.48;;;19.40;44.02
45071;BME280;30836;48.906;9.140;2023-03-19T04:55:31;984.50;;;19.41;44.00
45071;BME280;30836;48.906;9.140;2023-03-19T04:56:32;984.54;;;19.41;43.94
45071;BME280;30836;48.906;9.140;2023-03-19T04:57:32;984.57;;;19.38;44.09
45071;BME280;30836;48.906;9.140;2023-03-19T04:58:33;984.59;;;19.36;44.22
45071;BME280;30836;48.906;9.140;2023-03-19T04:59:34;984.61;;;19.34;44.27
45071;BME280;30836;48.906;9.140;2023-03-19T05:00:34;984.61;;;19.31;44.31
45071;BME280;30836;48.906;9.140;2023-03-19T05:01:35;984.61;;;19.29;44.38
45071;BME280;30836;48.906;9.140;2023-03-19T05:02:35;984.70;;;19.26;44.45
45071;BME280;30836;48.906;9.140;2023-03-19T05:03:36;984.59;;;19.23;44.55
45071;BME280;30836;48.906;9.140;2023-03-19T05:04:36;984.61;;;19.21;44.60
45071;BME280;30836;48.906;9.140;2023-03-19T05:05:37;984.61;;;19.20;44.66
45071;BME280;30836;48.906;9.140;2023-03-19T05:06:37;984.70;;;19.20;44.53
45071;BME280;30836;48.906;9.140;2023-03-19T05:07:39;984.72;;;19.19;44.44
45071;BME280;30836;48.906;9.140;2023-03-19T05:08:39;984.70;;;19.20;44.54
45071;BME280;30836;48.906;9.140;2023-03-19T05:09:40;984.72;;;19.22;44.52
45071;BME280;30836;48.906;9.140;2023-03-19T05:10:40;984.72;;;19.25;44.50
45071;BME280;30836;48.906;9.140;2023-03-19T05:11:41;984.70;;;19.28;44.46
45071;BME280;30836;48.906;9.140;2023-03-19T05:12:41;984.61;;;19.32;44.44
45071;BME280;30836;48.906;9.140;2023-03-19T05:13:42;984.59;;;19.34;44.49
45071;BME280;30836;48.906;9.140;2023-03-19T05:14:42;984.72;;;19.36;44.42
45071;BME280;30836;48.906;9.140;2023-03-19T05:15:43;984.70;;;19.38;44.31
45071;BME280;30836;48.906;9.140;2023-03-19T05:16:44;984.72;;;19.40;44.25
45071;BME280;30836;48.906;9.140;2023-03-19T05:17:45;984.76;;;19.41;44.29
45071;BME280;30836;48.906;9.140;2023-03-19T05:18:45;984.74;;;19.43;44.20
45071;BME280;30836;48.906;9.140;2023-03-19T05:19:46;984.77;;;19.45;44.15
45071;BME280;30836;48.906;9.140;2023-03-19T05:20:46;984.79;;;19.47;44.06
45071;BME280;30836;48.906;9.140;2023-03-19T05:21:47;984.81;;;19.49;44.04
45071;BME280;30836;48.906;9.140;2023-03-19T05:22:47;984.81;;;19.51;43.88
45071;BME280;30836;48.906;9.140;2023-03-19T05:23:48;984.83;;;19.54;43.77
45071;BME280;30836;48.906;9.140;2023-03-19T05:24:48;984.83;;;19.56;43.66
45071;BME280;30836;48.906;9.140;2023-03-19T05:25:49;984.81;;;19.58;43.55
45071;BME280;30836;48.906;9.140;2023-03-19T05:26:49;984.81;;;19.58;43.62
45071;BME280;30836;48.906;9.140;2023-03-19T05:27:50;984.79;;;19.58;43.63
45071;BME280;30836;48.906;9.140;2023-03-19T05:28:50;984.81;;;19.59;43.55
45071;BME280;30836;48.906;9.140;2023-03-19T05:29:51;984.81;;;19.60;43.57
45071;BME280;30836;48.906;9.140;2023-03-19T05:30:51;984.79;;;19.57;43.70
45071;BME280;30836;48.906;9.140;2023-03-19T05:31:51;984.81;;;19.52;43.75
45071;BME280;30836;48.906;9.140;2023-03-19T05:32:52;984.79;;;19.49;43.55